createdAt,value
2018-08-09T00:03:20.083Z,91.10
2018-08-09T00:08:24.379Z,91.20
2018-08-09T00:13:27.571Z,91.40
2018-08-09T00:18:30.939Z,91.20
2018-08-09T00:23:34.133Z,91.20
2018-08-09T00:28:37.338Z,91.30
2018-08-09T00:33:40.609Z,91.10
2018-08-09T00:38:44.898Z,91.10
2018-08-09T00:43:48.094Z,91.10
2018-08-09T00:48:52.605Z,91.30
2018-08-09T00:53:55.806Z,91.10
2018-08-09T00:59:01.113Z,91.40
2018-08-09T01:04:04.315Z,91.60
2018-08-09T01:09:20.672Z,91.70
2018-08-09T01:14:24.022Z,91.70
2018-08-09T01:19:27.374Z,91.90
2018-08-09T01:24:43.888Z,92.40
2018-08-09T01:29:47.108Z,92.40
2018-08-09T01:34:50.429Z,91.60
2018-08-09T01:39:54.091Z,91.60
2018-08-09T01:44:57.544Z,91.70
2018-08-09T01:50:01.342Z,92.00
2018-08-09T01:55:04.707Z,92.00
2018-08-09T02:00:08.032Z,91.60
2018-08-09T02:05:11.410Z,91.30
2018-08-09T02:10:14.614Z,92.30
2018-08-09T02:15:17.816Z,91.80
2018-08-09T02:20:21.990Z,91.70
2018-08-09T02:25:25.201Z,92.10
2018-08-09T02:30:28.402Z,92.20
2018-08-09T02:35:32.675Z,92.40
2018-08-09T02:40:35.925Z,92.60
2018-08-09T02:45:39.130Z,92.30
2018-08-09T02:50:42.358Z,92.30
2018-08-09T02:55:45.594Z,92.90
2018-08-09T03:00:48.790Z,92.60
2018-08-09T03:05:52.015Z,92.50
2018-08-09T03:10:55.220Z,92.50
2018-08-09T03:15:58.425Z,93.20
2018-08-09T03:21:01.640Z,93.10
2018-08-09T03:26:04.946Z,92.80
2018-08-09T03:31:09.218Z,92.50
2018-08-09T03:36:12.398Z,92.60
2018-08-09T03:41:15.561Z,93.20
2018-08-09T03:46:19.770Z,93.90
2018-08-09T03:51:22.949Z,93.50
2018-08-09T03:56:26.144Z,93.30
2018-08-09T04:01:29.393Z,93.10
2018-08-09T04:06:32.672Z,93.50
2018-08-09T04:11:35.891Z,93.50
2018-08-09T04:16:39.132Z,93.70
2018-08-09T04:21:42.313Z,93.80
2018-08-09T04:26:45.509Z,94.10
2018-08-09T04:31:48.703Z,94.10
2018-08-09T04:36:53.123Z,94.00
2018-08-09T04:41:56.295Z,94.40
2018-08-09T04:46:59.504Z,93.50
2018-08-09T04:52:02.705Z,93.50
2018-08-09T04:57:05.898Z,93.90
2018-08-09T05:02:09.115Z,93.80
2018-08-09T05:07:18.591Z,93.50
2018-08-09T05:12:21.777Z,93.30
2018-08-09T05:17:25.047Z,93.50
2018-08-09T05:22:28.205Z,92.90
2018-08-09T05:27:31.450Z,92.40
2018-08-09T05:32:34.762Z,92.40
2018-08-09T05:37:37.973Z,93.00
2018-08-09T05:42:41.195Z,93.20
2018-08-09T05:47:45.756Z,93.70
2018-08-09T05:52:49.119Z,93.20
2018-08-09T05:57:52.339Z,92.20
2018-08-09T06:02:55.510Z,92.00
2018-08-09T06:07:58.971Z,91.40
2018-08-09T06:13:02.255Z,91.70
2018-08-09T06:18:10.177Z,91.30
2018-08-09T06:23:13.964Z,91.10
2018-08-09T06:28:18.313Z,91.10
2018-08-09T06:33:21.601Z,91.40
2018-08-09T06:38:26.491Z,91.20
2018-08-09T06:43:29.702Z,91.40
2018-08-09T06:48:34.795Z,90.40
2018-08-09T06:53:40.309Z,90.40
2018-08-09T06:58:45.539Z,89.80
2018-08-09T07:03:48.834Z,89.70
2018-08-09T07:08:52.255Z,88.10
2018-08-09T07:13:59.182Z,88.00
2018-08-09T07:19:03.366Z,89.40
2018-08-09T07:24:06.631Z,88.40
2018-08-09T07:29:09.907Z,87.90
2018-08-09T07:34:13.241Z,88.40
2018-08-09T07:39:16.524Z,88.50
2018-08-09T07:44:26.410Z,90.00
2018-08-09T07:49:29.641Z,89.80
2018-08-09T07:54:32.843Z,90.70
2018-08-09T07:59:36.061Z,91.20
2018-08-09T08:04:44.049Z,90.20
2018-08-09T08:09:49.207Z,90.40
2018-08-09T08:14:52.510Z,90.40
2018-08-09T08:19:55.766Z,90.10
2018-08-09T08:24:58.976Z,90.10
2018-08-09T08:30:02.306Z,89.40
2018-08-09T08:35:06.176Z,90.00
2018-08-09T08:40:09.857Z,89.80
2018-08-09T08:45:14.078Z,89.80
2018-08-09T08:50:18.399Z,90.40
2018-08-09T08:55:21.641Z,90.90
2018-08-09T09:00:24.906Z,90.90
2018-08-09T09:05:28.337Z,90.00
2018-08-09T09:10:33.858Z,89.60
2018-08-09T09:15:37.072Z,89.50
2018-08-09T09:20:41.430Z,89.60
2018-08-09T09:25:44.683Z,89.80
2018-08-09T09:30:48.958Z,90.20
2018-08-09T09:35:52.207Z,89.80
2018-08-09T09:40:55.737Z,90.10
2018-08-09T09:45:58.994Z,90.00
2018-08-09T09:51:02.231Z,88.40
2018-08-09T09:56:05.525Z,89.40
2018-08-09T10:01:14.030Z,87.60
2018-08-09T10:06:28.017Z,87.60
2018-08-09T10:11:31.657Z,87.10
2018-08-09T10:16:34.969Z,86.50
2018-08-09T10:21:38.253Z,85.90
2018-08-09T10:26:41.566Z,85.40
2018-08-09T10:31:44.775Z,85.00
2018-08-09T10:36:48.078Z,87.20
2018-08-09T10:41:51.279Z,88.10
2018-08-09T10:46:54.450Z,85.60
2018-08-09T10:51:58.198Z,85.60
2018-08-09T10:57:01.401Z,85.00
2018-08-09T11:02:04.586Z,87.30
2018-08-09T11:07:08.070Z,86.30
2018-08-09T11:12:11.486Z,85.40
2018-08-09T11:17:14.745Z,83.10
2018-08-09T11:22:18.395Z,83.20
2018-08-09T11:27:21.578Z,83.50
2018-08-09T11:32:25.006Z,82.90
2018-08-09T11:37:28.278Z,84.00
2018-08-09T11:42:31.687Z,84.40
2018-08-09T11:47:34.957Z,85.70
2018-08-09T11:52:38.133Z,84.10
2018-08-09T11:57:48.948Z,82.50
2018-08-09T12:02:52.492Z,84.10
2018-08-09T12:07:55.782Z,85.30
2018-08-09T12:12:59.021Z,85.90
2018-08-09T12:18:02.255Z,86.10
2018-08-09T12:23:07.473Z,85.80
2018-08-09T12:28:10.658Z,88.40
2018-08-09T12:33:13.988Z,89.50
2018-08-09T12:38:17.859Z,90.30
2018-08-09T12:43:22.053Z,90.90
2018-08-09T12:48:25.309Z,91.10
2018-08-09T12:53:28.501Z,91.70
2018-08-09T12:58:31.749Z,91.50
2018-08-09T13:03:35.012Z,91.90
2018-08-09T13:08:38.287Z,91.10
2018-08-09T13:13:41.567Z,91.40
2018-08-09T13:18:45.072Z,91.00
2018-08-09T13:23:48.300Z,89.50
2018-08-09T13:28:51.494Z,90.40
2018-08-09T13:33:55.158Z,76.60
2018-08-09T13:38:58.367Z,71.80
2018-08-09T13:44:01.615Z,73.90
2018-08-09T13:49:05.007Z,84.40
2018-08-09T13:54:08.353Z,96.70
2018-08-09T13:59:11.602Z,98.40
2018-08-09T14:04:14.817Z,98.80
2018-08-09T14:09:17.990Z,99.90
2018-08-09T14:14:21.428Z,99.90
2018-08-09T14:19:24.594Z,99.90
2018-08-09T14:24:28.082Z,99.90
2018-08-09T14:29:31.262Z,99.90
2018-08-09T14:34:34.470Z,99.90
2018-08-09T14:39:37.671Z,99.90
2018-08-09T14:44:40.923Z,99.90
2018-08-09T14:49:44.161Z,99.90
2018-08-09T14:54:47.357Z,99.90
2018-08-09T14:59:50.648Z,99.90
2018-08-09T15:04:53.797Z,99.90
2018-08-09T15:09:57.443Z,99.90
2018-08-09T15:15:00.631Z,99.90
2018-08-09T15:20:05.651Z,99.90
2018-08-09T15:25:09.790Z,99.90
2018-08-09T15:30:16.359Z,99.90
2018-08-09T15:35:19.925Z,99.90
2018-08-09T15:40:23.558Z,99.30
2018-08-09T15:45:27.802Z,98.80
2018-08-09T15:50:32.023Z,99.50
2018-08-09T15:55:35.269Z,98.50
2018-08-09T16:00:38.447Z,98.60
2018-08-09T16:05:41.687Z,98.40
2018-08-09T16:10:47.440Z,98.60
2018-08-09T16:15:50.646Z,98.70
2018-08-09T16:20:53.877Z,98.40
2018-08-09T16:25:57.057Z,98.90
2018-08-09T16:31:01.907Z,98.10
2018-08-09T16:36:05.164Z,98.30
2018-08-09T16:41:08.338Z,98.10
2018-08-09T16:46:11.579Z,98.40
2018-08-09T16:51:14.778Z,98.30
2018-08-09T16:56:17.970Z,97.70
2018-08-09T17:01:21.157Z,97.80
2018-08-09T17:06:24.432Z,97.30
2018-08-09T17:11:28.289Z,97.10
2018-08-09T17:16:31.598Z,96.80
2018-08-09T17:21:36.256Z,96.80
2018-08-09T17:26:39.626Z,96.90
2018-08-09T17:31:42.860Z,96.20
2018-08-09T17:36:46.362Z,96.00
2018-08-09T17:41:49.578Z,95.60
2018-08-09T17:46:54.794Z,95.50
2018-08-09T17:51:59.314Z,95.20
2018-08-09T17:57:02.510Z,95.00
2018-08-09T18:02:05.898Z,95.10
2018-08-09T18:07:09.356Z,95.30
2018-08-09T18:12:14.229Z,95.30
2018-08-09T18:17:17.494Z,95.80
2018-08-09T18:22:20.781Z,95.90
2018-08-09T18:27:24.042Z,96.20
2018-08-09T18:32:27.559Z,95.90
2018-08-09T18:37:30.786Z,96.30
2018-08-09T18:42:34.019Z,99.90
2018-08-09T18:47:37.590Z,99.90
2018-08-09T18:52:41.854Z,99.60
2018-08-09T18:57:45.062Z,99.90
2018-08-09T19:02:49.059Z,99.90
2018-08-09T19:07:52.376Z,99.90
2018-08-09T19:12:55.619Z,99.90
2018-08-09T19:18:03.658Z,99.90
2018-08-09T19:23:06.842Z,99.90
2018-08-09T19:28:10.127Z,99.90
2018-08-09T19:33:13.378Z,99.90
2018-08-09T19:38:16.598Z,99.90
2018-08-09T19:43:19.905Z,99.90
2018-08-09T19:48:23.186Z,98.90
2018-08-09T19:53:26.425Z,98.80
2018-08-09T19:58:30.577Z,98.30
2018-08-09T20:03:34.827Z,99.00
2018-08-09T20:08:38.090Z,97.80
2018-08-09T20:13:41.321Z,98.00
2018-08-09T20:18:44.539Z,97.30
2018-08-09T20:23:48.775Z,97.40
2018-08-09T20:28:52.053Z,97.00
2018-08-09T20:33:55.406Z,96.80
2018-08-09T20:38:59.662Z,96.30
2018-08-09T20:44:04.846Z,96.90
2018-08-09T20:49:09.162Z,96.80
2018-08-09T20:54:12.322Z,96.70
2018-08-09T20:59:15.590Z,96.70
2018-08-09T21:04:22.012Z,96.00
2018-08-09T21:09:25.319Z,96.30
2018-08-09T21:14:28.598Z,95.80
2018-08-09T21:19:35.050Z,94.80
2018-08-09T21:24:38.248Z,94.80
2018-08-09T21:29:41.608Z,95.00
2018-08-09T21:34:44.858Z,94.90
2018-08-09T21:39:51.747Z,94.90
2018-08-09T21:44:55.035Z,94.80
2018-08-09T21:50:01.334Z,94.50
2018-08-09T21:55:05.141Z,95.10
2018-08-09T22:00:49.841Z,95.60
2018-08-09T22:05:58.709Z,95.90
2018-08-09T22:11:07.545Z,96.10
2018-08-09T22:16:16.270Z,96.70
2018-08-09T22:21:25.101Z,96.20
2018-08-09T22:26:28.337Z,96.50
2018-08-09T22:31:32.030Z,96.80
2018-08-09T22:36:35.244Z,96.80
2018-08-09T22:41:38.550Z,96.50
2018-08-09T22:46:41.770Z,96.70
2018-08-09T22:51:45.009Z,97.00
2018-08-09T22:56:48.220Z,96.70
2018-08-09T23:01:51.395Z,96.80
2018-08-09T23:06:54.632Z,96.80
2018-08-09T23:11:57.794Z,97.10
2018-08-09T23:17:00.984Z,97.20
2018-08-09T23:22:04.378Z,97.40
2018-08-09T23:27:07.574Z,98.00
2018-08-09T23:32:10.833Z,97.50
2018-08-09T23:37:14.026Z,97.20
2018-08-09T23:42:17.178Z,97.00
2018-08-09T23:47:20.406Z,96.90
2018-08-09T23:52:23.655Z,97.00
2018-08-09T23:57:26.830Z,97.20
